Time;durP1;ratioP1;P1;durP2;ratioP2;P2;SDS_P1;SDS_P2;PMS_P1;PMS_P2;Temp;Humidity;BMP_temperature;BMP_pressure;BME280_temperature;BME280_humidity;BME280_pressure;Samples;Min_cycle;Max_cycle;Signal;HPM_P1;HPM_P2
2022/05/04 00:01:19;;;;;;;;;;;;;;;4.96;80.14;95333.69;4973969;28;923;-48
2022/05/04 00:03:45;;;;;;;;;;;;;;;4.93;79.62;95337.41;4974426;28;1017;-48
2022/05/04 00:06:11;;;;;;;;;;;;;;;4.83;80.17;95342.59;4975355;28;1026;-48
2022/05/04 00:08:37;;;;;;;;;;;;;;;5.00;80.35;95353.69;4978281;28;1161;-48
2022/05/04 00:11:04;;;;;;;;;;;;;;;5.10;79.15;95346.69;4977945;28;1071;-48
2022/05/04 00:13:31;;;;;;;;;;;;;;;5.17;78.70;95342.56;4978146;28;1092;-48
2022/05/04 00:15:57;;;;;;;;;;;;;;;5.24;78.31;95348.25;4977949;28;1918;-48
2022/05/04 00:18:23;;;;;;;;;;;;;;;5.16;77.67;95345.34;4977806;28;1034;-48
2022/05/04 00:20:50;;;;;;;;;;;;;;;4.90;78.21;95342.97;4977693;28;1045;-48
2022/05/04 00:23:16;;;;;;;;;;;;;;;4.77;78.70;95335.16;4977855;28;1021;-48
2022/05/04 00:25:42;;;;;;;;;;;;;;;4.77;79.19;95332.50;4977499;28;1163;-48
2022/05/04 00:28:08;;;;;;;;;;;;;;;4.87;79.11;95338.75;4977575;28;1072;-48
2022/05/04 00:30:34;;;;;;;;;;;;;;;4.75;78.83;95338.91;4977466;28;1049;-48
2022/05/04 00:33:01;;;;;;;;;;;;;;;4.82;79.19;95337.47;4977516;28;1025;-48
2022/05/04 00:35:27;;;;;;;;;;;;;;;5.01;78.59;95342.13;4977554;28;1895;-48
2022/05/04 00:37:53;;;;;;;;;;;;;;;4.94;78.69;95338.28;4977823;28;963;-48
2022/05/04 00:40:19;;;;;;;;;;;;;;;5.01;78.05;95342.97;4977691;28;1068;-48
2022/05/04 00:42:45;;;;;;;;;;;;;;;4.71;78.45;95345.41;4977622;28;1004;-48
2022/05/04 00:45:11;;;;;;;;;;;;;;;4.42;79.21;95351.13;4977697;28;976;-48
2022/05/04 00:47:37;;;;;;;;;;;;;;;4.37;79.96;95358.63;4976872;28;1025;-48
2022/05/04 00:50:07;;;;;;;;;;;;;;;4.45;79.82;95350.91;4977494;28;1053;-48
2022/05/04 00:52:36;;;;;;;;;;;;;;;4.69;79.06;95353.47;4977134;28;946;-48
2022/05/04 00:55:05;;;;;;;;;;;;;;;4.81;79.03;95352.50;4977472;28;1915;-48
2022/05/04 01:00:19;;;;;;;;;;;;;;;4.73;78.10;95354.06;4956724;28;1274;-48
2022/05/04 01:02:45;;;;;;;;;;;;;;;4.49;78.23;95358.50;4977153;28;1042;-48
2022/05/04 01:05:11;;;;;;;;;;;;;;;4.48;79.64;95351.53;4977062;28;1040;-48
2022/05/04 01:07:38;;;;;;;;;;;;;;;4.62;78.73;95355.75;4976758;28;1033;-48
2022/05/04 01:10:05;;;;;;;;;;;;;;;4.55;78.77;95345.75;4976956;28;1022;-48
2022/05/04 01:12:34;;;;;;;;;;;;;;;4.41;78.63;95350.31;4976684;28;1092;-48
2022/05/04 01:15:00;;;;;;;;;;;;;;;4.28;78.77;95345.09;4976993;28;1915;-48
2022/05/04 01:17:29;;;;;;;;;;;;;;;4.20;79.29;95350.16;4974677;28;999;-48
2022/05/04 01:19:55;;;;;;;;;;;;;;;4.39;79.25;95351.41;4976906;28;965;-48
2022/05/04 01:22:24;;;;;;;;;;;;;;;4.56;79.78;95352.75;4976590;28;1033;-48
2022/05/04 01:24:51;;;;;;;;;;;;;;;4.61;79.13;95348.78;4976684;28;1072;-48
2022/05/04 01:27:17;;;;;;;;;;;;;;;4.57;78.60;95341.16;4976131;28;1151;-48
2022/05/04 01:29:43;;;;;;;;;;;;;;;4.34;78.22;95341.16;4976835;28;1045;-48
2022/05/04 01:32:09;;;;;;;;;;;;;;;4.42;79.08;95349.34;4976452;28;995;-48
2022/05/04 01:34:35;;;;;;;;;;;;;;;4.42;77.88;95340.56;4976370;28;1989;-48
2022/05/04 01:37:02;;;;;;;;;;;;;;;4.04;78.12;95349.63;4976429;28;965;-48
2022/05/04 01:39:28;;;;;;;;;;;;;;;3.84;78.71;95356.44;4976345;28;1041;-48
2022/05/04 01:42:03;;;;;;;;;;;;;;;3.90;79.49;95348.88;4976363;28;1025;-48
2022/05/04 01:44:33;;;;;;;;;;;;;;;4.15;79.36;95360.25;4976331;28;1096;-48
2022/05/04 01:46:59;;;;;;;;;;;;;;;4.25;79.54;95361.25;4976105;28;966;-48
2022/05/04 01:49:25;;;;;;;;;;;;;;;4.41;79.64;95360.91;4975984;28;1013;-48
2022/05/04 01:51:52;;;;;;;;;;;;;;;4.51;79.28;95363.66;4976055;28;962;-48
2022/05/04 01:54:18;;;;;;;;;;;;;;;4.45;77.39;95367.63;4976265;28;1910;-48
2022/05/04 01:56:44;;;;;;;;;;;;;;;4.36;78.11;95359.56;4976355;28;1011;-48
2022/05/04 01:59:10;;;;;;;;;;;;;;;4.13;77.15;95363.97;4976049;28;1050;-48
2022/05/04 02:01:39;;;;;;;;;;;;;;;3.89;79.15;95347.19;4975761;28;1037;-48
2022/05/04 02:04:06;;;;;;;;;;;;;;;4.01;78.82;95353.34;4976251;28;974;-48
2022/05/04 02:06:32;;;;;;;;;;;;;;;3.79;78.94;95348.81;4975938;28;961;-48
2022/05/04 02:08:58;;;;;;;;;;;;;;;3.77;79.18;95358.69;4976169;28;930;-48
2022/05/04 02:11:25;;;;;;;;;;;;;;;3.83;79.63;95350.31;4975751;28;1198;-47
2022/05/04 02:13:51;;;;;;;;;;;;;;;3.80;79.30;95349.69;4975880;28;1049;-48
2022/05/04 02:16:17;;;;;;;;;;;;;;;3.90;80.10;95348.03;4975589;28;1981;-48
2022/05/04 02:18:43;;;;;;;;;;;;;;;4.00;78.57;95345.53;4975332;28;1049;-48
2022/05/04 02:21:09;;;;;;;;;;;;;;;3.88;78.71;95355.25;4975885;28;1001;-48
2022/05/04 02:23:36;;;;;;;;;;;;;;;3.81;79.45;95354.84;4975628;28;961;-48
2022/05/04 02:26:02;;;;;;;;;;;;;;;3.82;78.86;95361.00;4975453;28;1210;-48
2022/05/04 02:28:28;;;;;;;;;;;;;;;3.87;78.51;95358.84;4975178;28;1088;-48
2022/05/04 02:30:54;;;;;;;;;;;;;;;3.85;78.60;95358.09;4975774;28;992;-48
2022/05/04 02:33:20;;;;;;;;;;;;;;;3.83;78.59;95363.53;4975089;28;1029;-48
2022/05/04 02:38:31;;;;;;;;;;;;;;;4.04;79.02;95365.50;4975031;28;1021;-48
2022/05/04 02:40:57;;;;;;;;;;;;;;;4.08;78.49;95370.47;4975356;28;1060;-48
2022/05/04 02:43:25;;;;;;;;;;;;;;;4.03;77.44;95371.78;4974967;28;1036;-48
2022/05/04 02:45:51;;;;;;;;;;;;;;;3.76;76.96;95370.22;4975523;28;1016;-48
2022/05/04 02:48:17;;;;;;;;;;;;;;;3.53;78.18;95371.94;4975180;28;1032;-48
2022/05/04 02:50:43;;;;;;;;;;;;;;;3.33;79.33;95378.66;4975345;28;1004;-48
2022/05/04 02:53:09;;;;;;;;;;;;;;;3.40;79.15;95376.44;4974911;28;1113;-48
2022/05/04 02:55:35;;;;;;;;;;;;;;;3.64;78.86;95385.22;4975218;28;1993;-48
2022/05/04 02:58:02;;;;;;;;;;;;;;;3.91;78.38;95386.78;4974883;28;1088;-48
2022/05/04 03:00:28;;;;;;;;;;;;;;;3.92;79.16;95391.91;4974942;28;1037;-48
2022/05/04 03:02:54;;;;;;;;;;;;;;;3.84;78.95;95383.72;4974856;28;975;-48
2022/05/04 03:05:21;;;;;;;;;;;;;;;3.90;79.06;95395.66;4975063;28;1004;-48
2022/05/04 03:07:47;;;;;;;;;;;;;;;3.94;78.71;95401.56;4974710;28;1076;-48
2022/05/04 03:10:14;;;;;;;;;;;;;;;3.86;77.68;95402.97;4974782;28;1013;-48
2022/05/04 03:12:40;;;;;;;;;;;;;;;3.72;77.68;95398.72;4974807;28;975;-48
2022/05/04 03:15:07;;;;;;;;;;;;;;;3.64;78.75;95403.72;4974662;28;1906;-48
2022/05/04 03:17:33;;;;;;;;;;;;;;;3.72;78.27;95401.34;4974378;28;1091;-48
2022/05/04 03:19:59;;;;;;;;;;;;;;;3.72;78.17;95398.72;4974595;28;1025;-48
2022/05/04 03:22:26;;;;;;;;;;;;;;;3.50;78.32;95402.06;4974819;28;974;-48
2022/05/04 03:24:52;;;;;;;;;;;;;;;3.42;79.55;95400.97;4974635;28;1002;-48
2022/05/04 03:27:18;;;;;;;;;;;;;;;3.69;79.40;95403.38;4974331;28;1210;-48
2022/05/04 03:29:45;;;;;;;;;;;;;;;3.79;78.96;95398.25;4974443;28;1004;-48
2022/05/04 03:32:11;;;;;;;;;;;;;;;3.74;78.61;95409.19;4974777;28;1004;-48
2022/05/04 03:34:37;;;;;;;;;;;;;;;3.71;78.36;95404.94;4974567;28;1981;-48
2022/05/04 03:37:03;;;;;;;;;;;;;;;3.86;79.44;95407.41;4974529;28;1032;-48
2022/05/04 03:39:30;;;;;;;;;;;;;;;4.04;78.73;95415.78;4974260;28;1028;-48
2022/05/04 03:41:56;;;;;;;;;;;;;;;3.91;77.59;95416.69;4979121;28;1076;-48
2022/05/04 03:44:22;;;;;;;;;;;;;;;3.78;77.64;95421.22;4980713;28;1023;-48
2022/05/04 03:46:49;;;;;;;;;;;;;;;3.70;78.10;95418.31;4979443;28;1020;-48
2022/05/04 03:49:16;;;;;;;;;;;;;;;3.69;78.27;95430.66;4980731;28;1028;-48
2022/05/04 03:51:43;;;;;;;;;;;;;;;3.87;78.59;95432.91;4980992;28;971;-48
2022/05/04 03:54:09;;;;;;;;;;;;;;;4.00;78.04;95441.63;4980790;28;1914;-48
2022/05/04 03:56:36;;;;;;;;;;;;;;;4.13;77.48;95441.56;4980712;28;993;-48
2022/05/04 03:59:03;;;;;;;;;;;;;;;4.02;77.16;95444.16;4980691;28;1004;-48
2022/05/04 04:01:30;;;;;;;;;;;;;;;4.27;78.27;95429.94;4980432;28;1056;-48
2022/05/04 04:03:56;;;;;;;;;;;;;;;4.48;77.99;95435.41;4980859;28;1008;-48
2022/05/04 04:06:22;;;;;;;;;;;;;;;4.45;77.13;95438.28;4980629;28;1096;-48
2022/05/04 04:08:49;;;;;;;;;;;;;;;4.33;77.20;95452.47;4980602;28;1005;-48
2022/05/04 04:11:15;;;;;;;;;;;;;;;4.50;77.40;95450.22;4980715;28;1041;-47
2022/05/04 04:13:41;;;;;;;;;;;;;;;4.66;78.40;95452.53;4980445;28;1224;-48
2022/05/04 04:16:07;;;;;;;;;;;;;;;5.07;78.06;95460.91;4980378;28;1914;-48
2022/05/04 04:18:34;;;;;;;;;;;;;;;5.29;77.72;95468.00;4980171;28;1017;-48
2022/05/04 04:23:44;;;;;;;;;;;;;;;5.68;77.07;95468.44;4980710;28;959;-48
2022/05/04 04:26:11;;;;;;;;;;;;;;;5.80;77.14;95477.22;4979160;28;1227;-49
2022/05/04 04:28:38;;;;;;;;;;;;;;;5.86;76.91;95471.41;4980335;28;1033;-48
2022/05/04 04:31:04;;;;;;;;;;;;;;;6.05;77.05;95484.94;4980197;28;1040;-48
2022/05/04 04:33:30;;;;;;;;;;;;;;;6.27;76.64;95477.84;4980415;28;1009;-48
2022/05/04 04:35:57;;;;;;;;;;;;;;;6.28;76.84;95484.00;4979282;28;1915;-48
2022/05/04 04:38:25;;;;;;;;;;;;;;;6.05;77.51;95490.25;4980451;28;987;-48
2022/05/04 04:40:51;;;;;;;;;;;;;;;6.02;77.86;95497.59;4980315;28;1009;-48
2022/05/04 04:43:17;;;;;;;;;;;;;;;6.31;77.99;95499.69;4980281;28;1029;-48
2022/05/04 04:45:44;;;;;;;;;;;;;;;7.32;74.71;95492.94;4980287;28;1026;-48
2022/05/04 04:48:11;;;;;;;;;;;;;;;8.72;69.02;95492.00;4980164;28;1863;-48
2022/05/04 04:50:37;;;;;;;;;;;;;;;9.63;65.78;95507.53;4978813;28;1018;-48
2022/05/04 04:53:03;;;;;;;;;;;;;;;9.79;65.90;95490.91;4977304;28;1068;-48
2022/05/04 04:55:29;;;;;;;;;;;;;;;10.44;64.30;95481.97;4977258;28;1935;-48
2022/05/04 04:57:55;;;;;;;;;;;;;;;11.22;61.28;95474.06;4975910;28;1047;-48
2022/05/04 05:00:22;;;;;;;;;;;;;;;11.27;61.99;95489.66;4976860;28;1041;-48
2022/05/04 05:02:48;;;;;;;;;;;;;;;11.29;61.29;95493.84;4977073;28;1100;-48
2022/05/04 05:05:14;;;;;;;;;;;;;;;11.73;60.13;95495.63;4977067;28;1042;-48
2022/05/04 05:07:42;;;;;;;;;;;;;;;11.38;60.78;95491.22;4977085;28;1049;-48
2022/05/04 05:10:08;;;;;;;;;;;;;;;11.32;62.08;95488.19;4976941;28;1026;-48
2022/05/04 05:12:34;;;;;;;;;;;;;;;11.20;62.92;95488.59;4976838;28;1038;-48
2022/05/04 05:17:45;;;;;;;;;;;;;;;11.75;61.35;95500.81;4976763;28;1021;-48
2022/05/04 05:20:12;;;;;;;;;;;;;;;12.32;59.35;95503.75;4976776;28;1131;-48
2022/05/04 05:22:38;;;;;;;;;;;;;;;12.60;57.55;95504.31;4976720;28;1088;-48
2022/05/04 05:25:04;;;;;;;;;;;;;;;13.32;54.89;95511.78;4976506;28;1028;-48
2022/05/04 05:27:30;;;;;;;;;;;;;;;13.63;55.52;95514.56;4976355;28;1242;-48
2022/05/04 05:29:56;;;;;;;;;;;;;;;14.43;54.82;95505.53;4976583;28;997;-49
2022/05/04 05:32:22;;;;;;;;;;;;;;;14.43;53.58;95512.78;4976852;28;992;-49
2022/05/04 05:34:50;;;;;;;;;;;;;;;14.61;53.16;95508.00;4976650;28;1906;-49
2022/05/04 05:37:17;;;;;;;;;;;;;;;14.70;51.51;95499.88;4976413;28;1084;-49
2022/05/04 05:39:43;;;;;;;;;;;;;;;13.99;53.39;95514.13;4976354;28;1025;-49
2022/05/04 05:42:10;;;;;;;;;;;;;;;13.63;54.36;95508.34;4976573;28;951;-48
2022/05/04 05:44:36;;;;;;;;;;;;;;;13.11;56.80;95506.03;4976192;28;1041;-48
2022/05/04 05:47:02;;;;;;;;;;;;;;;12.59;58.30;95505.31;4976194;28;1084;-48
2022/05/04 05:49:28;;;;;;;;;;;;;;;11.81;60.43;95503.69;4976147;28;997;-48
2022/05/04 05:51:54;;;;;;;;;;;;;;;11.13;62.08;95499.94;4976137;28;1053;-48
2022/05/04 05:54:20;;;;;;;;;;;;;;;10.66;64.27;95492.19;4976248;28;1911;-48
2022/05/04 05:56:46;;;;;;;;;;;;;;;10.44;64.57;95496.16;4976016;28;1084;-48
2022/05/04 05:59:13;;;;;;;;;;;;;;;10.43;65.34;95481.09;4976257;28;1020;-48
2022/05/04 06:01:39;;;;;;;;;;;;;;;10.48;63.10;95488.66;4976064;28;1005;-48
2022/05/04 06:04:05;;;;;;;;;;;;;;;10.73;65.58;95481.72;4975772;28;1165;-48
2022/05/04 06:06:31;;;;;;;;;;;;;;;10.97;64.08;95485.59;4975800;28;1048;-48
2022/05/04 06:08:57;;;;;;;;;;;;;;;11.25;64.49;95486.28;4975913;28;1008;-48
2022/05/04 06:11:24;;;;;;;;;;;;;;;11.41;62.48;95486.41;4975797;28;1013;-48
2022/05/04 06:13:53;;;;;;;;;;;;;;;11.51;62.35;95495.19;4975927;28;1046;-48
2022/05/04 06:16:19;;;;;;;;;;;;;;;11.69;63.07;95486.22;4975769;28;1914;-48
2022/05/04 06:18:45;;;;;;;;;;;;;;;11.81;61.70;95492.13;4975543;28;1091;-48
2022/05/04 06:21:11;;;;;;;;;;;;;;;11.97;63.52;95491.38;4975516;28;1025;-48
2022/05/04 06:23:38;;;;;;;;;;;;;;;12.16;60.82;95492.97;4975446;28;1016;-48
2022/05/04 06:26:04;;;;;;;;;;;;;;;12.19;62.37;95489.97;4975323;28;1226;-48
2022/05/04 06:28:30;;;;;;;;;;;;;;;12.42;61.54;95493.72;4975264;28;1249;-48
2022/05/04 06:36:26;;;;;;;;;;;;;;;12.98;60.07;95485.06;4975345;28;1959;-48
2022/05/04 06:38:52;;;;;;;;;;;;;;;13.14;57.82;95486.91;4975541;28;957;-48
2022/05/04 06:41:18;;;;;;;;;;;;;;;13.46;56.38;95483.38;4975400;28;957;-48
2022/05/04 06:43:45;;;;;;;;;;;;;;;13.39;57.23;95483.22;4975481;28;989;-48
2022/05/04 06:46:11;;;;;;;;;;;;;;;13.64;57.76;95492.06;4975139;28;1047;-48
2022/05/04 06:48:37;;;;;;;;;;;;;;;14.00;55.68;95486.25;4974963;28;1029;-48
2022/05/04 06:51:03;;;;;;;;;;;;;;;14.10;55.82;95490.59;4974958;28;978;-48
2022/05/04 06:53:30;;;;;;;;;;;;;;;14.27;55.28;95483.28;4975048;28;1041;-48
2022/05/04 06:55:56;;;;;;;;;;;;;;;14.48;54.30;95488.03;4975289;28;1914;-48
2022/05/04 06:58:22;;;;;;;;;;;;;;;14.44;54.50;95487.56;4975141;28;1041;-48
2022/05/04 07:00:48;;;;;;;;;;;;;;;14.60;54.26;95478.56;4973883;28;1033;-48
2022/05/04 07:03:14;;;;;;;;;;;;;;;14.93;54.72;95484.56;4974743;28;1073;-48
2022/05/04 07:05:41;;;;;;;;;;;;;;;15.16;54.65;95481.03;4975057;28;977;-48
2022/05/04 07:08:07;;;;;;;;;;;;;;;15.30;53.84;95488.28;4975050;28;1042;-48
2022/05/04 07:10:34;;;;;;;;;;;;;;;15.49;52.69;95484.25;4975067;28;975;-48
2022/05/04 07:13:00;;;;;;;;;;;;;;;15.32;51.07;95480.03;4974777;28;942;-49
2022/05/04 07:15:27;;;;;;;;;;;;;;;15.36;50.56;95475.94;4973928;28;1910;-49
2022/05/04 07:17:53;;;;;;;;;;;;;;;15.24;51.90;95475.56;4974674;28;942;-48
2022/05/04 07:20:19;;;;;;;;;;;;;;;15.38;50.84;95476.59;4974629;28;953;-48
2022/05/04 07:22:45;;;;;;;;;;;;;;;15.34;52.70;95470.75;4974831;28;1030;-48
2022/05/04 07:25:11;;;;;;;;;;;;;;;15.38;53.60;95480.13;4974614;28;1202;-48
2022/05/04 07:27:37;;;;;;;;;;;;;;;15.44;52.80;95473.16;4974421;28;1092;-48
2022/05/04 07:30:04;;;;;;;;;;;;;;;15.54;52.15;95473.75;4974819;28;1052;-48
2022/05/04 07:32:30;;;;;;;;;;;;;;;15.54;52.57;95471.06;4974365;28;1040;-48
2022/05/04 07:34:56;;;;;;;;;;;;;;;15.81;51.21;95468.78;4974503;28;1906;-48
2022/05/04 07:37:22;;;;;;;;;;;;;;;15.74;51.42;95463.28;4974500;28;1029;-47
2022/05/04 07:42:33;;;;;;;;;;;;;;;15.72;52.86;95457.22;4974524;28;946;-48
2022/05/04 07:45:00;;;;;;;;;;;;;;;15.84;51.57;95457.66;4974936;28;963;-49
2022/05/04 07:47:27;;;;;;;;;;;;;;;15.94;52.89;95460.06;4974007;28;1025;-49
2022/05/04 07:49:54;;;;;;;;;;;;;;;16.25;53.68;95457.13;4974624;28;1005;-49
2022/05/04 07:52:20;;;;;;;;;;;;;;;16.29;50.22;95462.97;4974443;28;1005;-49
2022/05/04 07:54:46;;;;;;;;;;;;;;;16.20;51.47;95460.41;4974268;28;1902;-49
2022/05/04 07:57:12;;;;;;;;;;;;;;;16.22;49.17;95454.81;4974282;28;942;-49
2022/05/04 07:59:38;;;;;;;;;;;;;;;16.36;51.85;95445.00;4974079;28;1014;-49
2022/05/04 08:04:50;;;;;;;;;;;;;;;16.85;51.68;95444.31;4974373;28;1021;-49
2022/05/04 08:07:17;;;;;;;;;;;;;;;16.73;49.42;95445.81;4974260;28;1046;-49
2022/05/04 08:09:44;;;;;;;;;;;;;;;17.00;49.17;95448.81;4974309;28;1061;-49
2022/05/04 08:12:12;;;;;;;;;;;;;;;17.29;51.12;95454.06;4974425;28;949;-49
2022/05/04 08:14:41;;;;;;;;;;;;;;;17.63;46.64;95457.03;4974324;28;1987;-49
2022/05/04 08:17:07;;;;;;;;;;;;;;;17.79;48.27;95448.56;4974348;28;981;-49
2022/05/04 08:19:33;;;;;;;;;;;;;;;17.94;49.35;95443.91;4973735;28;942;-49
2022/05/04 08:22:00;;;;;;;;;;;;;;;18.19;50.51;95456.13;4974095;28;1030;-49
2022/05/04 08:24:27;;;;;;;;;;;;;;;18.12;45.91;95456.91;4973952;28;988;-48
2022/05/04 08:26:54;;;;;;;;;;;;;;;17.95;44.76;95452.88;4974275;28;1151;-48
2022/05/04 08:29:20;;;;;;;;;;;;;;;18.13;45.55;95455.88;4977432;28;1068;-48
2022/05/04 08:31:46;;;;;;;;;;;;;;;18.07;45.60;95447.72;4977919;28;1022;-49
2022/05/04 08:34:12;;;;;;;;;;;;;;;18.38;46.97;95452.66;4977466;28;1033;-48
2022/05/04 08:36:38;;;;;;;;;;;;;;;18.68;47.22;95446.91;4976305;28;1910;-48
2022/05/04 08:39:08;;;;;;;;;;;;;;;18.80;45.72;95442.63;4977557;28;951;-48
2022/05/04 08:41:37;;;;;;;;;;;;;;;18.83;43.03;95444.06;4977705;28;971;-48
2022/05/04 08:44:05;;;;;;;;;;;;;;;18.80;42.06;95445.34;4977522;28;996;-49
2022/05/04 08:46:34;;;;;;;;;;;;;;;18.78;41.77;95444.66;4977655;28;947;-48
2022/05/04 08:49:01;;;;;;;;;;;;;;;18.95;43.99;95444.28;4977346;28;1037;-49
2022/05/04 08:51:28;;;;;;;;;;;;;;;19.12;44.12;95434.72;4977392;28;1033;-49
2022/05/04 08:53:54;;;;;;;;;;;;;;;19.11;44.69;95444.72;4977115;28;1068;-49
2022/05/04 08:56:20;;;;;;;;;;;;;;;19.32;44.81;95440.16;4977053;28;1976;-49
2022/05/04 08:58:46;;;;;;;;;;;;;;;19.37;43.13;95442.22;4975797;28;1009;-48
2022/05/04 09:01:12;;;;;;;;;;;;;;;19.34;42.91;95439.97;4977370;28;958;-48
2022/05/04 09:03:39;;;;;;;;;;;;;;;19.44;40.38;95443.06;4976906;28;1306;-49
2022/05/04 09:06:05;;;;;;;;;;;;;;;19.39;42.80;95446.44;4977205;28;991;-49
2022/05/04 09:08:51;;;;;;;;;;;;;;;19.49;42.76;95444.13;4977137;28;1062;-49
2022/05/04 09:11:19;;;;;;;;;;;;;;;19.56;39.46;95440.56;4977262;28;953;-49
2022/05/04 09:13:46;;;;;;;;;;;;;;;19.76;41.56;95435.16;4977010;28;1039;-50
2022/05/04 09:16:23;;;;;;;;;;;;;;;19.91;40.59;95438.44;4977158;28;2002;-49
2022/05/04 09:18:49;;;;;;;;;;;;;;;19.89;39.55;95430.53;4976874;28;1060;-50
2022/05/04 09:21:22;;;;;;;;;;;;;;;19.92;42.17;95428.44;4977080;28;1057;-48
2022/05/04 09:23:49;;;;;;;;;;;;;;;19.99;42.05;95429.25;4976555;28;1065;-49
2022/05/04 09:26:15;;;;;;;;;;;;;;;19.99;41.24;95421.94;4967568;28;3272;-49
2022/05/04 09:28:42;;;;;;;;;;;;;;;20.12;40.37;95420.25;4956544;28;3224;-48
2022/05/04 09:31:08;;;;;;;;;;;;;;;20.19;40.63;95419.16;4975678;28;3565;-49
2022/05/04 09:33:35;;;;;;;;;;;;;;;20.17;40.65;95413.13;4976265;28;1049;-49
2022/05/04 09:36:05;;;;;;;;;;;;;;;20.20;39.52;95415.38;4976232;28;3717;-49
2022/05/04 09:46:48;;;;;;;;;;;;;;;20.12;40.39;95401.25;4976689;28;1006;-49
2022/05/04 09:49:18;;;;;;;;;;;;;;;20.20;39.40;95398.28;4975831;28;1662;-48
2022/05/04 09:51:54;;;;;;;;;;;;;;;20.27;38.68;95399.09;4974980;28;1029;-48
2022/05/04 09:54:21;;;;;;;;;;;;;;;20.18;39.15;95395.78;4976154;28;1915;-49
2022/05/04 09:56:48;;;;;;;;;;;;;;;20.15;38.08;95395.41;4976099;28;1042;-49
2022/05/04 09:59:16;;;;;;;;;;;;;;;20.15;39.35;95387.25;4976036;28;1049;-49
2022/05/04 10:01:42;;;;;;;;;;;;;;;20.20;39.02;95393.66;4976153;28;1128;-49
2022/05/04 10:04:09;;;;;;;;;;;;;;;20.29;41.20;95384.22;4976006;28;1903;-49
2022/05/04 10:06:35;;;;;;;;;;;;;;;20.20;39.41;95390.94;4976116;28;1119;-48
2022/05/04 10:09:03;;;;;;;;;;;;;;;20.19;38.31;95381.16;4975965;28;951;-48
2022/05/04 10:11:30;;;;;;;;;;;;;;;20.36;41.25;95373.34;4975704;28;1029;-49
2022/05/04 10:14:01;;;;;;;;;;;;;;;20.24;37.92;95373.22;4976170;28;1046;-48
2022/05/04 10:16:30;;;;;;;;;;;;;;;20.32;39.45;95374.84;4975848;28;1982;-48
2022/05/04 10:18:57;;;;;;;;;;;;;;;20.43;40.29;95368.72;4975746;28;1038;-49
2022/05/04 10:21:24;;;;;;;;;;;;;;;20.43;38.05;95367.88;4975618;28;1042;-48
2022/05/04 10:23:54;;;;;;;;;;;;;;;20.25;36.82;95361.28;4975785;28;1022;-48
2022/05/04 10:26:34;;;;;;;;;;;;;;;20.28;35.57;95358.16;4975323;28;1136;-48
2022/05/04 10:31:53;;;;;;;;;;;;;;;20.04;38.12;95351.56;4975486;28;1010;-49
2022/05/04 10:34:19;;;;;;;;;;;;;;;20.22;38.53;95341.88;4975419;28;1910;-49
2022/05/04 10:36:46;;;;;;;;;;;;;;;20.38;38.43;95341.38;4975290;28;994;-49
2022/05/04 10:39:18;;;;;;;;;;;;;;;20.46;39.08;95334.88;4975476;28;1638;-49
2022/05/04 10:41:44;;;;;;;;;;;;;;;20.64;35.38;95335.00;4975475;28;1030;-49
2022/05/04 10:44:11;;;;;;;;;;;;;;;20.33;36.80;95329.50;4975514;28;998;-49
2022/05/04 10:46:41;;;;;;;;;;;;;;;20.18;36.53;95327.91;4975178;28;993;-49
2022/05/04 10:49:10;;;;;;;;;;;;;;;20.01;39.27;95329.47;4975106;28;1018;-49
2022/05/04 10:51:38;;;;;;;;;;;;;;;19.63;37.74;95324.75;4974112;28;1017;-49
2022/05/04 10:54:08;;;;;;;;;;;;;;;19.45;38.06;95320.03;4975517;28;959;-50
2022/05/04 10:56:35;;;;;;;;;;;;;;;19.46;38.61;95325.25;4974809;28;1985;-49
2022/05/04 10:59:01;;;;;;;;;;;;;;;19.55;38.14;95330.44;4975175;28;1028;-49
2022/05/04 11:01:30;;;;;;;;;;;;;;;19.52;37.00;95331.69;4974909;28;1072;-49
2022/05/04 11:04:17;;;;;;;;;;;;;;;19.53;36.25;95327.09;4975251;28;952;-49
2022/05/04 11:06:52;;;;;;;;;;;;;;;19.56;37.07;95321.22;4974857;28;1969;-49
2022/05/04 11:09:21;;;;;;;;;;;;;;;20.04;39.63;95321.72;4974929;28;1101;-48
2022/05/04 11:11:49;;;;;;;;;;;;;;;20.55;39.56;95322.69;4974779;28;985;-49
2022/05/04 11:14:16;;;;;;;;;;;;;;;20.67;38.79;95309.25;4974880;28;902;-48
2022/05/04 11:16:43;;;;;;;;;;;;;;;20.90;38.10;95322.25;4975009;28;1938;-49
2022/05/04 11:19:11;;;;;;;;;;;;;;;20.77;33.88;95312.34;4974852;28;1012;-48
2022/05/04 11:21:37;;;;;;;;;;;;;;;20.96;36.66;95320.53;4974742;28;1042;-48
2022/05/04 11:24:04;;;;;;;;;;;;;;;21.33;38.16;95323.34;4974907;28;1073;-48
2022/05/04 11:26:33;;;;;;;;;;;;;;;21.25;37.58;95308.97;4974443;28;1214;-48
2022/05/04 11:28:59;;;;;;;;;;;;;;;21.17;37.56;95314.72;4974655;28;1238;-51
2022/05/04 11:31:25;;;;;;;;;;;;;;;21.09;37.46;95319.59;4973989;28;971;-48
2022/05/04 11:33:51;;;;;;;;;;;;;;;21.18;37.14;95310.09;4974656;28;1045;-48
2022/05/04 11:36:21;;;;;;;;;;;;;;;21.24;37.83;95312.75;4973967;28;1906;-48
2022/05/04 11:38:48;;;;;;;;;;;;;;;21.32;37.48;95310.78;4974682;28;1266;-48
2022/05/04 11:41:15;;;;;;;;;;;;;;;21.15;37.90;95308.66;4974293;28;1097;-48
2022/05/04 11:43:41;;;;;;;;;;;;;;;20.98;38.21;95312.97;4974491;28;1056;-48
2022/05/04 11:46:09;;;;;;;;;;;;;;;20.70;37.94;95302.53;4974405;28;1068;-48
2022/05/04 11:48:42;;;;;;;;;;;;;;;20.50;39.03;95298.06;4974265;28;1092;-49
2022/05/04 11:51:09;;;;;;;;;;;;;;;20.42;39.52;95293.72;4974652;28;1011;-49
2022/05/04 11:53:36;;;;;;;;;;;;;;;20.38;40.29;95300.66;4974704;28;981;-48
2022/05/04 11:56:05;;;;;;;;;;;;;;;20.54;39.34;95295.75;4974204;28;1910;-48
2022/05/04 11:58:32;;;;;;;;;;;;;;;20.73;38.96;95299.41;4972480;28;3433;-48
2022/05/04 12:00:59;;;;;;;;;;;;;;;20.89;38.49;95300.72;4974354;28;1051;-48
2022/05/04 12:03:25;;;;;;;;;;;;;;;20.98;37.21;95293.94;4977435;28;3624;-48
2022/05/04 12:05:53;;;;;;;;;;;;;;;21.05;39.15;95289.28;4978151;28;1046;-48
2022/05/04 12:08:19;;;;;;;;;;;;;;;21.28;39.69;95290.53;4978039;28;1045;-48
2022/05/04 12:10:48;;;;;;;;;;;;;;;21.59;39.27;95287.72;4976725;28;3139;-48
2022/05/04 12:13:21;;;;;;;;;;;;;;;21.61;38.31;95284.78;4977999;28;1041;-48
2022/05/04 12:15:49;;;;;;;;;;;;;;;21.73;38.99;95287.59;4978352;28;1972;-48
2022/05/04 12:18:15;;;;;;;;;;;;;;;21.85;38.38;95283.03;4975863;28;3496;-48
2022/05/04 12:20:45;;;;;;;;;;;;;;;22.08;38.64;95279.59;4977909;28;3701;-48
2022/05/04 12:23:12;;;;;;;;;;;;;;;22.38;37.66;95278.78;4977696;28;3738;-48
2022/05/04 12:25:39;;;;;;;;;;;;;;;22.44;37.63;95277.03;4977538;28;1147;-48
2022/05/04 12:28:06;;;;;;;;;;;;;;;22.43;37.92;95276.22;4977728;28;1069;-48
2022/05/04 12:33:22;;;;;;;;;;;;;;;22.11;36.33;95278.31;4977389;28;1104;-50
2022/05/04 12:35:48;;;;;;;;;;;;;;;21.79;34.84;95270.34;4976424;28;3584;-47
2022/05/04 12:38:17;;;;;;;;;;;;;;;21.62;35.67;95270.13;4977253;28;1074;-47
2022/05/04 12:40:43;;;;;;;;;;;;;;;21.30;34.28;95261.25;4977679;28;1036;-48
2022/05/04 12:43:09;;;;;;;;;;;;;;;21.24;38.68;95258.34;4977627;28;1023;-48
2022/05/04 12:45:37;;;;;;;;;;;;;;;21.16;38.49;95260.56;4977398;28;1038;-48
2022/05/04 12:48:07;;;;;;;;;;;;;;;20.83;37.92;95264.41;4976991;28;1632;-48
2022/05/04 12:50:33;;;;;;;;;;;;;;;20.62;39.46;95258.31;4977332;28;1048;-48
2022/05/04 12:53:00;;;;;;;;;;;;;;;20.57;39.76;95249.97;4977055;28;1088;-47
2022/05/04 12:58:12;;;;;;;;;;;;;;;20.40;39.28;95251.56;4977059;28;1042;-48
2022/05/04 13:00:38;;;;;;;;;;;;;;;20.28;40.31;95246.00;4977118;28;1021;-48
2022/05/04 13:03:08;;;;;;;;;;;;;;;20.25;40.01;95239.13;4975671;28;1084;-48
2022/05/04 13:05:34;;;;;;;;;;;;;;;20.27;39.61;95241.63;4977443;28;1036;-48
2022/05/04 13:08:00;;;;;;;;;;;;;;;20.33;40.08;95239.91;4976700;28;1022;-47
2022/05/04 13:10:26;;;;;;;;;;;;;;;20.35;40.38;95248.66;4976930;28;1143;-48
2022/05/04 13:12:52;;;;;;;;;;;;;;;20.40;39.86;95246.13;4976599;28;3295;-48
2022/05/04 13:15:18;;;;;;;;;;;;;;;20.51;39.42;95250.00;4974616;28;1987;-47
2022/05/04 13:21:07;;;;;;;;;;;;;;;20.88;38.76;95245.53;4977108;28;637;-48
2022/05/04 13:23:33;;;;;;;;;;;;;;;20.88;38.04;95242.00;4975130;28;2005;-48
2022/05/04 13:26:00;;;;;;;;;;;;;;;20.83;37.74;95240.78;4976382;28;1160;-48
2022/05/04 13:28:28;;;;;;;;;;;;;;;20.94;40.78;95243.81;4976410;28;1215;-47
2022/05/04 13:30:55;;;;;;;;;;;;;;;21.02;39.05;95238.13;4976691;28;1084;-47
2022/05/04 13:33:22;;;;;;;;;;;;;;;21.04;37.78;95241.44;4976243;28;1100;-47
2022/05/04 13:35:49;;;;;;;;;;;;;;;21.16;39.19;95239.63;4975549;28;1911;-47
2022/05/04 13:38:15;;;;;;;;;;;;;;;21.06;40.18;95239.31;4976620;28;981;-48
2022/05/04 13:40:41;;;;;;;;;;;;;;;20.74;40.10;95241.31;4976582;28;1208;-47
2022/05/04 13:43:08;;;;;;;;;;;;;;;20.60;40.84;95240.56;4976548;28;985;-47